sensor_id;sensor_type;location;lat;lon;timestamp;temperature;humidity
18083;DHT22;9168;51.194;6.840;2022-11-25T00:01:32;8.80;99.90
18083;DHT22;9168;51.194;6.840;2022-11-25T00:03:59;8.80;99.90
18083;DHT22;9168;51.194;6.840;2022-11-25T00:06:28;8.80;99.90
18083;DHT22;9168;51.194;6.840;2022-11-25T00:08:57;8.80;99.90
18083;DHT22;9168;51.194;6.840;2022-11-25T00:11:24;8.70;99.90
18083;DHT22;9168;51.194;6.840;2022-11-25T00:13:52;8.70;99.90
18083;DHT22;9168;51.194;6.840;2022-11-25T00:16:20;8.70;99.90
18083;DHT22;9168;51.194;6.840;2022-11-25T00:18:50;8.70;99.90
18083;DHT22;9168;51.194;6.840;2022-11-25T00:21:19;8.70;99.90
18083;DHT22;9168;51.194;6.840;2022-11-25T00:23:50;8.70;99.90
18083;DHT22;9168;51.194;6.840;2022-11-25T00:26:17;8.70;99.90
18083;DHT22;9168;51.194;6.840;2022-11-25T00:28:45;8.70;99.90
18083;DHT22;9168;51.194;6.840;2022-11-25T00:31:14;8.70;99.90
18083;DHT22;9168;51.194;6.840;2022-11-25T00:33:42;8.70;99.90
18083;DHT22;9168;51.194;6.840;2022-11-25T00:36:15;8.60;99.90
18083;DHT22;9168;51.194;6.840;2022-11-25T00:38:42;8.70;99.90
18083;DHT22;9168;51.194;6.840;2022-11-25T00:41:09;8.70;99.90
18083;DHT22;9168;51.194;6.840;2022-11-25T00:43:53;8.60;99.90
18083;DHT22;9168;51.194;6.840;2022-11-25T00:46:37;8.60;99.90
18083;DHT22;9168;51.194;6.840;2022-11-25T00:49:04;8.60;99.90
18083;DHT22;9168;51.194;6.840;2022-11-25T00:51:33;8.60;99.90
18083;DHT22;9168;51.194;6.840;2022-11-25T00:54:00;8.60;99.90
18083;DHT22;9168;51.194;6.840;2022-11-25T00:56:26;8.60;99.90
18083;DHT22;9168;51.194;6.840;2022-11-25T00:58:54;8.60;99.90
18083;DHT22;9168;51.194;6.840;2022-11-25T01:01:23;8.60;99.90
18083;DHT22;9168;51.194;6.840;2022-11-25T01:03:51;8.70;99.90
18083;DHT22;9168;51.194;6.840;2022-11-25T01:06:19;8.60;99.90
18083;DHT22;9168;51.194;6.840;2022-11-25T01:08:48;8.70;99.90
18083;DHT22;9168;51.194;6.840;2022-11-25T01:11:17;8.70;99.90
18083;DHT22;9168;51.194;6.840;2022-11-25T01:13:45;8.70;99.90
18083;DHT22;9168;51.194;6.840;2022-11-25T01:16:13;8.70;99.90
18083;DHT22;9168;51.194;6.840;2022-11-25T01:18:40;8.70;99.90
18083;DHT22;9168;51.194;6.840;2022-11-25T01:21:09;8.70;99.90
18083;DHT22;9168;51.194;6.840;2022-11-25T01:23:36;8.70;99.90
18083;DHT22;9168;51.194;6.840;2022-11-25T01:28:40;8.70;99.90
18083;DHT22;9168;51.194;6.840;2022-11-25T01:31:09;8.80;99.90
18083;DHT22;9168;51.194;6.840;2022-11-25T01:33:37;8.70;99.90
18083;DHT22;9168;51.194;6.840;2022-11-25T01:36:05;8.80;99.90
18083;DHT22;9168;51.194;6.840;2022-11-25T01:38:33;8.80;99.90
18083;DHT22;9168;51.194;6.840;2022-11-25T01:41:01;8.80;99.90
18083;DHT22;9168;51.194;6.840;2022-11-25T01:43:29;8.80;99.90
18083;DHT22;9168;51.194;6.840;2022-11-25T01:46:02;8.80;99.90
18083;DHT22;9168;51.194;6.840;2022-11-25T01:48:37;8.80;99.90
18083;DHT22;9168;51.194;6.840;2022-11-25T01:51:05;8.80;99.90
18083;DHT22;9168;51.194;6.840;2022-11-25T01:53:33;8.90;99.90
18083;DHT22;9168;51.194;6.840;2022-11-25T01:56:02;8.90;99.90
18083;DHT22;9168;51.194;6.840;2022-11-25T01:58:32;8.90;99.90
18083;DHT22;9168;51.194;6.840;2022-11-25T02:01:03;9.00;99.90
18083;DHT22;9168;51.194;6.840;2022-11-25T02:03:33;8.90;99.90
18083;DHT22;9168;51.194;6.840;2022-11-25T02:06:06;9.00;99.90
18083;DHT22;9168;51.194;6.840;2022-11-25T02:08:34;9.00;99.90
18083;DHT22;9168;51.194;6.840;2022-11-25T02:11:02;9.00;99.90
18083;DHT22;9168;51.194;6.840;2022-11-25T02:13:30;9.00;99.90
18083;DHT22;9168;51.194;6.840;2022-11-25T02:15:57;9.00;99.90
18083;DHT22;9168;51.194;6.840;2022-11-25T02:18:26;9.00;99.90
18083;DHT22;9168;51.194;6.840;2022-11-25T02:20:53;9.10;99.90
18083;DHT22;9168;51.194;6.840;2022-11-25T02:23:27;9.10;99.90
18083;DHT22;9168;51.194;6.840;2022-11-25T02:25:57;9.10;99.90
18083;DHT22;9168;51.194;6.840;2022-11-25T02:28:26;9.10;99.90
18083;DHT22;9168;51.194;6.840;2022-11-25T02:30:55;9.10;99.90
18083;DHT22;9168;51.194;6.840;2022-11-25T02:33:22;9.10;99.90
18083;DHT22;9168;51.194;6.840;2022-11-25T02:35:51;9.20;99.90
18083;DHT22;9168;51.194;6.840;2022-11-25T02:38:23;9.20;99.90
18083;DHT22;9168;51.194;6.840;2022-11-25T02:40:53;9.20;99.90
18083;DHT22;9168;51.194;6.840;2022-11-25T02:43:22;9.20;99.90
18083;DHT22;9168;51.194;6.840;2022-11-25T02:45:57;9.10;99.90
18083;DHT22;9168;51.194;6.840;2022-11-25T02:48:25;9.20;99.90
18083;DHT22;9168;51.194;6.840;2022-11-25T02:50:52;9.20;99.90
18083;DHT22;9168;51.194;6.840;2022-11-25T02:53:20;9.20;99.90
18083;DHT22;9168;51.194;6.840;2022-11-25T02:55:47;9.20;99.90
18083;DHT22;9168;51.194;6.840;2022-11-25T02:58:14;9.20;99.90
18083;DHT22;9168;51.194;6.840;2022-11-25T03:00:43;9.20;99.90
18083;DHT22;9168;51.194;6.840;2022-11-25T03:03:10;9.20;99.90
18083;DHT22;9168;51.194;6.840;2022-11-25T03:05:37;9.20;99.90
18083;DHT22;9168;51.194;6.840;2022-11-25T03:08:05;9.20;99.90
18083;DHT22;9168;51.194;6.840;2022-11-25T03:10:32;9.20;99.90
18083;DHT22;9168;51.194;6.840;2022-11-25T03:12:59;9.20;99.90
18083;DHT22;9168;51.194;6.840;2022-11-25T03:15:27;9.20;99.90
18083;DHT22;9168;51.194;6.840;2022-11-25T03:17:55;9.20;99.90
18083;DHT22;9168;51.194;6.840;2022-11-25T03:20:22;9.20;99.90
18083;DHT22;9168;51.194;6.840;2022-11-25T03:22:49;9.20;99.90
18083;DHT22;9168;51.194;6.840;2022-11-25T03:25:17;9.20;99.90
18083;DHT22;9168;51.194;6.840;2022-11-25T03:27:44;9.20;99.90
18083;DHT22;9168;51.194;6.840;2022-11-25T03:30:13;9.20;99.90
18083;DHT22;9168;51.194;6.840;2022-11-25T03:32:41;9.30;99.90
18083;DHT22;9168;51.194;6.840;2022-11-25T03:35:10;9.40;99.90
18083;DHT22;9168;51.194;6.840;2022-11-25T03:37:39;9.30;99.90
18083;DHT22;9168;51.194;6.840;2022-11-25T03:40:08;9.30;99.90
18083;DHT22;9168;51.194;6.840;2022-11-25T03:42:35;9.30;99.90
18083;DHT22;9168;51.194;6.840;2022-11-25T03:45:03;9.30;99.90
18083;DHT22;9168;51.194;6.840;2022-11-25T03:47:30;9.30;99.90
18083;DHT22;9168;51.194;6.840;2022-11-25T03:49:57;9.30;99.90
18083;DHT22;9168;51.194;6.840;2022-11-25T03:52:25;9.30;99.90
18083;DHT22;9168;51.194;6.840;2022-11-25T03:54:52;9.30;99.90
18083;DHT22;9168;51.194;6.840;2022-11-25T03:57:19;9.30;99.90
18083;DHT22;9168;51.194;6.840;2022-11-25T03:59:46;9.30;99.90
18083;DHT22;9168;51.194;6.840;2022-11-25T04:02:13;9.30;99.90
18083;DHT22;9168;51.194;6.840;2022-11-25T04:04:39;9.30;99.90
18083;DHT22;9168;51.194;6.840;2022-11-25T04:07:06;9.30;99.90
18083;DHT22;9168;51.194;6.840;2022-11-25T04:09:35;9.30;99.90
18083;DHT22;9168;51.194;6.840;2022-11-25T04:12:02;9.30;99.90
18083;DHT22;9168;51.194;6.840;2022-11-25T04:14:47;9.30;99.90
18083;DHT22;9168;51.194;6.840;2022-11-25T04:17:14;9.40;99.90
18083;DHT22;9168;51.194;6.840;2022-11-25T04:19:41;9.30;99.90
18083;DHT22;9168;51.194;6.840;2022-11-25T04:22:07;9.30;99.90
18083;DHT22;9168;51.194;6.840;2022-11-25T04:24:36;9.30;99.90
18083;DHT22;9168;51.194;6.840;2022-11-25T04:27:03;9.30;99.90
18083;DHT22;9168;51.194;6.840;2022-11-25T04:29:30;9.30;99.90
18083;DHT22;9168;51.194;6.840;2022-11-25T04:31:56;9.30;99.90
18083;DHT22;9168;51.194;6.840;2022-11-25T04:34:23;9.30;99.90
18083;DHT22;9168;51.194;6.840;2022-11-25T04:36:50;9.30;99.90
18083;DHT22;9168;51.194;6.840;2022-11-25T04:39:17;9.30;99.90
18083;DHT22;9168;51.194;6.840;2022-11-25T04:41:45;9.30;99.90
18083;DHT22;9168;51.194;6.840;2022-11-25T04:44:12;9.30;99.90
18083;DHT22;9168;51.194;6.840;2022-11-25T04:46:40;9.20;99.90
18083;DHT22;9168;51.194;6.840;2022-11-25T04:49:09;9.20;99.90
18083;DHT22;9168;51.194;6.840;2022-11-25T04:51:36;9.30;99.90
18083;DHT22;9168;51.194;6.840;2022-11-25T04:54:03;9.30;99.90
18083;DHT22;9168;51.194;6.840;2022-11-25T04:56:30;9.20;99.90
18083;DHT22;9168;51.194;6.840;2022-11-25T04:58:58;9.20;99.90
18083;DHT22;9168;51.194;6.840;2022-11-25T05:01:42;9.20;99.90
18083;DHT22;9168;51.194;6.840;2022-11-25T05:04:09;9.20;99.90
18083;DHT22;9168;51.194;6.840;2022-11-25T05:06:36;9.20;99.90
18083;DHT22;9168;51.194;6.840;2022-11-25T05:09:03;9.20;99.90
18083;DHT22;9168;51.194;6.840;2022-11-25T05:11:30;9.20;99.90
18083;DHT22;9168;51.194;6.840;2022-11-25T05:13:58;9.20;99.90
18083;DHT22;9168;51.194;6.840;2022-11-25T05:16:25;9.20;99.90
18083;DHT22;9168;51.194;6.840;2022-11-25T05:18:53;9.20;99.90
18083;DHT22;9168;51.194;6.840;2022-11-25T05:21:20;9.10;99.90
18083;DHT22;9168;51.194;6.840;2022-11-25T05:23:47;9.10;99.90
18083;DHT22;9168;51.194;6.840;2022-11-25T05:26:14;9.10;99.90
18083;DHT22;9168;51.194;6.840;2022-11-25T05:28:41;9.10;99.90
18083;DHT22;9168;51.194;6.840;2022-11-25T05:31:09;9.10;99.90
18083;DHT22;9168;51.194;6.840;2022-11-25T05:33:36;9.10;99.90
18083;DHT22;9168;51.194;6.840;2022-11-25T05:36:04;9.20;99.90
18083;DHT22;9168;51.194;6.840;2022-11-25T05:38:31;9.10;99.90
18083;DHT22;9168;51.194;6.840;2022-11-25T05:40:59;9.10;99.90
18083;DHT22;9168;51.194;6.840;2022-11-25T05:43:27;9.10;99.90
18083;DHT22;9168;51.194;6.840;2022-11-25T05:45:54;9.10;99.90
18083;DHT22;9168;51.194;6.840;2022-11-25T05:48:22;9.00;99.90
18083;DHT22;9168;51.194;6.840;2022-11-25T05:50:49;9.00;99.90
18083;DHT22;9168;51.194;6.840;2022-11-25T05:53:16;9.00;99.90
18083;DHT22;9168;51.194;6.840;2022-11-25T05:55:43;9.10;99.90
18083;DHT22;9168;51.194;6.840;2022-11-25T05:58:10;9.00;99.90
18083;DHT22;9168;51.194;6.840;2022-11-25T06:00:37;9.00;99.90
18083;DHT22;9168;51.194;6.840;2022-11-25T06:03:04;9.00;99.90
18083;DHT22;9168;51.194;6.840;2022-11-25T06:05:33;8.90;99.90
18083;DHT22;9168;51.194;6.840;2022-11-25T06:08:00;9.00;99.90
18083;DHT22;9168;51.194;6.840;2022-11-25T06:10:27;8.90;99.90
18083;DHT22;9168;51.194;6.840;2022-11-25T06:12:53;8.90;99.90
18083;DHT22;9168;51.194;6.840;2022-11-25T06:15:20;8.90;99.90
18083;DHT22;9168;51.194;6.840;2022-11-25T06:17:47;8.90;99.90
18083;DHT22;9168;51.194;6.840;2022-11-25T06:20:14;9.00;99.90
18083;DHT22;9168;51.194;6.840;2022-11-25T06:22:43;9.00;99.90
18083;DHT22;9168;51.194;6.840;2022-11-25T06:25:10;9.00;99.90
18083;DHT22;9168;51.194;6.840;2022-11-25T06:27:36;9.00;99.90
18083;DHT22;9168;51.194;6.840;2022-11-25T06:30:04;9.00;99.90
18083;DHT22;9168;51.194;6.840;2022-11-25T06:32:32;9.00;99.90
18083;DHT22;9168;51.194;6.840;2022-11-25T06:34:58;9.00;99.90
18083;DHT22;9168;51.194;6.840;2022-11-25T06:37:26;9.00;99.90
18083;DHT22;9168;51.194;6.840;2022-11-25T06:39:54;8.90;99.90
18083;DHT22;9168;51.194;6.840;2022-11-25T06:42:21;8.90;99.90
18083;DHT22;9168;51.194;6.840;2022-11-25T06:44:47;8.90;99.90
18083;DHT22;9168;51.194;6.840;2022-11-25T06:47:14;8.90;99.90
18083;DHT22;9168;51.194;6.840;2022-11-25T06:49:41;8.90;99.90
18083;DHT22;9168;51.194;6.840;2022-11-25T06:52:08;8.90;99.90
18083;DHT22;9168;51.194;6.840;2022-11-25T06:54:35;8.90;99.90
18083;DHT22;9168;51.194;6.840;2022-11-25T06:57:07;8.90;99.90
18083;DHT22;9168;51.194;6.840;2022-11-25T06:59:35;9.00;99.90
18083;DHT22;9168;51.194;6.840;2022-11-25T07:02:02;8.90;99.90
18083;DHT22;9168;51.194;6.840;2022-11-25T07:04:30;8.90;99.90
18083;DHT22;9168;51.194;6.840;2022-11-25T07:06:57;8.90;99.90
18083;DHT22;9168;51.194;6.840;2022-11-25T07:09:27;8.80;99.90
18083;DHT22;9168;51.194;6.840;2022-11-25T07:12:02;8.80;99.90
18083;DHT22;9168;51.194;6.840;2022-11-25T07:14:32;8.80;99.90
18083;DHT22;9168;51.194;6.840;2022-11-25T07:16:59;8.70;99.90
18083;DHT22;9168;51.194;6.840;2022-11-25T07:19:25;8.70;99.90
18083;DHT22;9168;51.194;6.840;2022-11-25T07:21:55;8.70;99.90
18083;DHT22;9168;51.194;6.840;2022-11-25T07:24:21;8.60;99.90
18083;DHT22;9168;51.194;6.840;2022-11-25T07:26:48;8.60;99.90
18083;DHT22;9168;51.194;6.840;2022-11-25T07:29:15;8.50;99.90
18083;DHT22;9168;51.194;6.840;2022-11-25T07:31:44;8.50;99.90
18083;DHT22;9168;51.194;6.840;2022-11-25T07:34:12;8.50;99.90
18083;DHT22;9168;51.194;6.840;2022-11-25T07:36:42;8.50;99.90
18083;DHT22;9168;51.194;6.840;2022-11-25T07:39:11;8.50;99.90
18083;DHT22;9168;51.194;6.840;2022-11-25T07:41:38;8.50;99.90
18083;DHT22;9168;51.194;6.840;2022-11-25T07:44:07;8.60;99.90
18083;DHT22;9168;51.194;6.840;2022-11-25T07:46:36;8.60;99.90
18083;DHT22;9168;51.194;6.840;2022-11-25T07:49:05;8.60;99.90
18083;DHT22;9168;51.194;6.840;2022-11-25T07:51:34;8.60;99.90
18083;DHT22;9168;51.194;6.840;2022-11-25T07:54:04;8.60;99.90
18083;DHT22;9168;51.194;6.840;2022-11-25T07:56:33;8.60;99.90
18083;DHT22;9168;51.194;6.840;2022-11-25T07:59:00;8.60;99.90
18083;DHT22;9168;51.194;6.840;2022-11-25T08:01:28;8.60;99.90
18083;DHT22;9168;51.194;6.840;2022-11-25T08:03:55;8.60;99.90
18083;DHT22;9168;51.194;6.840;2022-11-25T08:06:24;8.60;99.90
18083;DHT22;9168;51.194;6.840;2022-11-25T08:08:52;8.60;99.90
18083;DHT22;9168;51.194;6.840;2022-11-25T08:11:22;8.60;99.90
18083;DHT22;9168;51.194;6.840;2022-11-25T08:13:50;8.60;99.90
18083;DHT22;9168;51.194;6.840;2022-11-25T08:16:19;8.60;99.90
18083;DHT22;9168;51.194;6.840;2022-11-25T08:18:47;8.70;99.90
18083;DHT22;9168;51.194;6.840;2022-11-25T08:21:14;8.70;99.90
18083;DHT22;9168;51.194;6.840;2022-11-25T08:23:43;8.70;99.90
18083;DHT22;9168;51.194;6.840;2022-11-25T08:26:15;8.70;99.90
18083;DHT22;9168;51.194;6.840;2022-11-25T08:28:42;8.70;99.90
18083;DHT22;9168;51.194;6.840;2022-11-25T08:31:10;8.80;99.90
18083;DHT22;9168;51.194;6.840;2022-11-25T08:33:38;8.80;99.90
18083;DHT22;9168;51.194;6.840;2022-11-25T08:36:06;8.80;99.90
18083;DHT22;9168;51.194;6.840;2022-11-25T08:38:33;8.80;99.90
18083;DHT22;9168;51.194;6.840;2022-11-25T08:41:02;8.80;99.90
18083;DHT22;9168;51.194;6.840;2022-11-25T08:43:29;8.70;99.90
18083;DHT22;9168;51.194;6.840;2022-11-25T08:45:56;8.70;99.90
18083;DHT22;9168;51.194;6.840;2022-11-25T08:48:23;8.70;99.90
18083;DHT22;9168;51.194;6.840;2022-11-25T08:50:52;8.70;99.90
18083;DHT22;9168;51.194;6.840;2022-11-25T08:53:20;8.70;99.90
18083;DHT22;9168;51.194;6.840;2022-11-25T08:55:47;8.80;99.90
18083;DHT22;9168;51.194;6.840;2022-11-25T08:58:16;8.70;99.90
18083;DHT22;9168;51.194;6.840;2022-11-25T09:00:43;8.80;99.90
18083;DHT22;9168;51.194;6.840;2022-11-25T09:03:10;8.90;99.90
18083;DHT22;9168;51.194;6.840;2022-11-25T09:05:38;8.90;99.90
18083;DHT22;9168;51.194;6.840;2022-11-25T09:08:06;8.90;99.90
18083;DHT22;9168;51.194;6.840;2022-11-25T09:10:33;8.90;99.90
18083;DHT22;9168;51.194;6.840;2022-11-25T09:13:00;8.90;99.90
18083;DHT22;9168;51.194;6.840;2022-11-25T09:15:29;9.00;99.90
18083;DHT22;9168;51.194;6.840;2022-11-25T09:17:59;9.00;99.90
18083;DHT22;9168;51.194;6.840;2022-11-25T09:20:27;9.00;99.90
18083;DHT22;9168;51.194;6.840;2022-11-25T09:22:54;9.10;99.90
18083;DHT22;9168;51.194;6.840;2022-11-25T09:25:21;9.10;99.90
18083;DHT22;9168;51.194;6.840;2022-11-25T09:27:48;9.10;99.90
18083;DHT22;9168;51.194;6.840;2022-11-25T09:30:15;9.10;99.90
18083;DHT22;9168;51.194;6.840;2022-11-25T09:32:46;9.10;99.90
18083;DHT22;9168;51.194;6.840;2022-11-25T09:35:14;9.10;99.90
18083;DHT22;9168;51.194;6.840;2022-11-25T09:37:40;9.20;99.90
18083;DHT22;9168;51.194;6.840;2022-11-25T09:40:13;9.30;99.90
18083;DHT22;9168;51.194;6.840;2022-11-25T09:42:50;9.40;99.90
18083;DHT22;9168;51.194;6.840;2022-11-25T09:45:45;9.50;99.90
18083;DHT22;9168;51.194;6.840;2022-11-25T09:48:47;9.50;99.90
18083;DHT22;9168;51.194;6.840;2022-11-25T09:51:19;9.50;99.90
18083;DHT22;9168;51.194;6.840;2022-11-25T09:53:50;9.50;99.90
18083;DHT22;9168;51.194;6.840;2022-11-25T09:56:28;9.50;99.90
18083;DHT22;9168;51.194;6.840;2022-11-25T09:59:01;9.50;99.90
18083;DHT22;9168;51.194;6.840;2022-11-25T10:01:31;9.60;99.90
18083;DHT22;9168;51.194;6.840;2022-11-25T10:04:03;9.70;99.90
18083;DHT22;9168;51.194;6.840;2022-11-25T10:06:35;9.80;99.90
18083;DHT22;9168;51.194;6.840;2022-11-25T10:09:11;9.90;99.90
18083;DHT22;9168;51.194;6.840;2022-11-25T10:11:46;9.90;99.90
18083;DHT22;9168;51.194;6.840;2022-11-25T10:14:20;10.00;99.90
18083;DHT22;9168;51.194;6.840;2022-11-25T10:16:51;10.10;99.90
18083;DHT22;9168;51.194;6.840;2022-11-25T10:19:35;10.10;99.90
18083;DHT22;9168;51.194;6.840;2022-11-25T10:22:16;10.20;99.90
18083;DHT22;9168;51.194;6.840;2022-11-25T10:24:46;10.30;99.90
18083;DHT22;9168;51.194;6.840;2022-11-25T10:27:17;10.30;99.90
18083;DHT22;9168;51.194;6.840;2022-11-25T10:29:51;10.40;99.90
18083;DHT22;9168;51.194;6.840;2022-11-25T10:32:23;10.50;99.90
18083;DHT22;9168;51.194;6.840;2022-11-25T10:34:56;10.60;99.90
18083;DHT22;9168;51.194;6.840;2022-11-25T10:37:27;10.60;99.90
18083;DHT22;9168;51.194;6.840;2022-11-25T10:39:54;10.60;99.90
18083;DHT22;9168;51.194;6.840;2022-11-25T10:42:23;10.70;99.90
18083;DHT22;9168;51.194;6.840;2022-11-25T10:44:51;10.70;99.90
18083;DHT22;9168;51.194;6.840;2022-11-25T10:47:33;10.70;99.90
18083;DHT22;9168;51.194;6.840;2022-11-25T10:50:14;10.70;99.90
18083;DHT22;9168;51.194;6.840;2022-11-25T10:52:47;10.80;99.90
18083;DHT22;9168;51.194;6.840;2022-11-25T10:55:15;10.80;99.90
18083;DHT22;9168;51.194;6.840;2022-11-25T10:57:43;10.90;99.90
18083;DHT22;9168;51.194;6.840;2022-11-25T11:00:28;11.00;99.90
18083;DHT22;9168;51.194;6.840;2022-11-25T11:02:56;11.20;99.90
18083;DHT22;9168;51.194;6.840;2022-11-25T11:05:25;11.30;99.90
18083;DHT22;9168;51.194;6.840;2022-11-25T11:08:15;11.40;99.90
18083;DHT22;9168;51.194;6.840;2022-11-25T11:10:43;11.50;99.90
18083;DHT22;9168;51.194;6.840;2022-11-25T11:13:20;11.70;99.90
18083;DHT22;9168;51.194;6.840;2022-11-25T11:15:50;12.00;99.90
18083;DHT22;9168;51.194;6.840;2022-11-25T11:18:24;12.10;99.90
18083;DHT22;9168;51.194;6.840;2022-11-25T11:20:54;12.10;99.90
18083;DHT22;9168;51.194;6.840;2022-11-25T11:23:21;12.30;99.90
18083;DHT22;9168;51.194;6.840;2022-11-25T11:25:57;12.40;99.90
18083;DHT22;9168;51.194;6.840;2022-11-25T11:28:28;12.50;99.90
18083;DHT22;9168;51.194;6.840;2022-11-25T11:30:59;12.90;99.90
18083;DHT22;9168;51.194;6.840;2022-11-25T11:33:31;13.80;99.90
18083;DHT22;9168;51.194;6.840;2022-11-25T11:36:09;14.60;99.90
18083;DHT22;9168;51.194;6.840;2022-11-25T11:38:48;15.40;99.90
18083;DHT22;9168;51.194;6.840;2022-11-25T11:41:29;15.70;99.90
18083;DHT22;9168;51.194;6.840;2022-11-25T11:44:09;15.80;99.90
18083;DHT22;9168;51.194;6.840;2022-11-25T11:46:50;15.70;99.90
18083;DHT22;9168;51.194;6.840;2022-11-25T11:49:32;15.10;99.90
18083;DHT22;9168;51.194;6.840;2022-11-25T11:52:06;14.60;99.90
18083;DHT22;9168;51.194;6.840;2022-11-25T11:54:42;14.10;99.90
18083;DHT22;9168;51.194;6.840;2022-11-25T11:57:17;13.70;99.90
18083;DHT22;9168;51.194;6.840;2022-11-25T11:59:50;13.40;99.90
18083;DHT22;9168;51.194;6.840;2022-11-25T12:02:24;13.50;99.90
18083;DHT22;9168;51.194;6.840;2022-11-25T12:05:01;13.80;99.90
18083;DHT22;9168;51.194;6.840;2022-11-25T12:07:35;14.10;99.90
18083;DHT22;9168;51.194;6.840;2022-11-25T12:10:09;14.20;99.90
18083;DHT22;9168;51.194;6.840;2022-11-25T12:12:47;14.00;99.90
18083;DHT22;9168;51.194;6.840;2022-11-25T12:15:19;14.00;99.90
18083;DHT22;9168;51.194;6.840;2022-11-25T12:17:50;13.80;99.90
18083;DHT22;9168;51.194;6.840;2022-11-25T12:20:27;13.70;99.90
18083;DHT22;9168;51.194;6.840;2022-11-25T12:23:01;13.40;99.90
18083;DHT22;9168;51.194;6.840;2022-11-25T12:25:34;13.20;99.90
18083;DHT22;9168;51.194;6.840;2022-11-25T12:28:05;13.10;99.90
18083;DHT22;9168;51.194;6.840;2022-11-25T12:30:36;12.90;99.90
18083;DHT22;9168;51.194;6.840;2022-11-25T12:33:09;12.90;99.90
18083;DHT22;9168;51.194;6.840;2022-11-25T12:35:48;13.00;99.90
18083;DHT22;9168;51.194;6.840;2022-11-25T12:38:32;13.10;99.90
18083;DHT22;9168;51.194;6.840;2022-11-25T12:41:08;13.30;99.90
18083;DHT22;9168;51.194;6.840;2022-11-25T12:43:41;13.50;99.90
18083;DHT22;9168;51.194;6.840;2022-11-25T12:46:18;13.60;99.90
18083;DHT22;9168;51.194;6.840;2022-11-25T12:48:46;13.70;99.90
18083;DHT22;9168;51.194;6.840;2022-11-25T12:51:20;13.70;99.90
18083;DHT22;9168;51.194;6.840;2022-11-25T12:53:59;13.70;99.90
18083;DHT22;9168;51.194;6.840;2022-11-25T12:56:40;13.80;99.90
18083;DHT22;9168;51.194;6.840;2022-11-25T12:59:34;13.90;99.90
18083;DHT22;9168;51.194;6.840;2022-11-25T13:08:15;13.90;99.90
18083;DHT22;9168;51.194;6.840;2022-11-25T13:13:48;13.80;99.90
18083;DHT22;9168;51.194;6.840;2022-11-25T13:16:17;13.70;99.90
18083;DHT22;9168;51.194;6.840;2022-11-25T13:18:44;13.70;99.90
18083;DHT22;9168;51.194;6.840;2022-11-25T13:21:13;13.70;99.90
18083;DHT22;9168;51.194;6.840;2022-11-25T13:23:48;13.60;99.90
18083;DHT22;9168;51.194;6.840;2022-11-25T13:26:47;13.50;99.90
18083;DHT22;9168;51.194;6.840;2022-11-25T13:32:40;13.10;99.90
18083;DHT22;9168;51.194;6.840;2022-11-25T13:38:38;12.90;99.90
18083;DHT22;9168;51.194;6.840;2022-11-25T13:41:33;12.70;99.90
18083;DHT22;9168;51.194;6.840;2022-11-25T13:44:05;12.70;99.90
18083;DHT22;9168;51.194;6.840;2022-11-25T13:46:41;12.70;99.90
18083;DHT22;9168;51.194;6.840;2022-11-25T13:49:21;12.60;99.90
18083;DHT22;9168;51.194;6.840;2022-11-25T13:51:50;12.60;99.90
18083;DHT22;9168;51.194;6.840;2022-11-25T13:54:19;12.50;99.90
18083;DHT22;9168;51.194;6.840;2022-11-25T13:57:13;12.40;99.90
18083;DHT22;9168;51.194;6.840;2022-11-25T13:59:52;12.30;99.90
18083;DHT22;9168;51.194;6.840;2022-11-25T14:02:37;12.20;99.90
18083;DHT22;9168;51.194;6.840;2022-11-25T14:05:37;12.20;99.90
18083;DHT22;9168;51.194;6.840;2022-11-25T14:08:18;12.20;99.90
18083;DHT22;9168;51.194;6.840;2022-11-25T14:10:54;12.10;99.90
18083;DHT22;9168;51.194;6.840;2022-11-25T14:13:54;12.10;99.90
18083;DHT22;9168;51.194;6.840;2022-11-25T14:16:38;12.10;99.90
18083;DHT22;9168;51.194;6.840;2022-11-25T14:19:20;12.00;99.90
18083;DHT22;9168;51.194;6.840;2022-11-25T14:21:59;11.90;99.90
18083;DHT22;9168;51.194;6.840;2022-11-25T14:24:31;11.90;99.90
18083;DHT22;9168;51.194;6.840;2022-11-25T14:27:00;11.90;99.90
18083;DHT22;9168;51.194;6.840;2022-11-25T14:29:35;11.90;99.90
18083;DHT22;9168;51.194;6.840;2022-11-25T14:32:06;11.80;99.90
18083;DHT22;9168;51.194;6.840;2022-11-25T14:34:37;11.80;99.90
18083;DHT22;9168;51.194;6.840;2022-11-25T14:37:09;11.80;99.90
18083;DHT22;9168;51.194;6.840;2022-11-25T14:39:43;11.80;99.90
18083;DHT22;9168;51.194;6.840;2022-11-25T14:42:14;11.80;99.90
18083;DHT22;9168;51.194;6.840;2022-11-25T14:44:47;11.70;99.90
18083;DHT22;9168;51.194;6.840;2022-11-25T14:47:15;11.70;99.90
18083;DHT22;9168;51.194;6.840;2022-11-25T14:49:48;11.60;99.90
18083;DHT22;9168;51.194;6.840;2022-11-25T14:52:18;11.60;99.90
18083;DHT22;9168;51.194;6.840;2022-11-25T14:54:46;11.50;99.90
18083;DHT22;9168;51.194;6.840;2022-11-25T14:57:18;11.50;99.90
18083;DHT22;9168;51.194;6.840;2022-11-25T14:59:47;11.50;99.90
18083;DHT22;9168;51.194;6.840;2022-11-25T15:02:26;11.50;99.90
18083;DHT22;9168;51.194;6.840;2022-11-25T15:05:00;11.50;99.90
18083;DHT22;9168;51.194;6.840;2022-11-25T15:07:27;11.50;99.90
18083;DHT22;9168;51.194;6.840;2022-11-25T15:09:54;11.40;99.90
18083;DHT22;9168;51.194;6.840;2022-11-25T15:12:21;11.40;99.90
18083;DHT22;9168;51.194;6.840;2022-11-25T15:14:54;11.40;99.90
18083;DHT22;9168;51.194;6.840;2022-11-25T15:17:25;11.40;99.90
18083;DHT22;9168;51.194;6.840;2022-11-25T15:19:54;11.40;99.90
18083;DHT22;9168;51.194;6.840;2022-11-25T15:22:23;11.30;99.90
18083;DHT22;9168;51.194;6.840;2022-11-25T15:24:51;11.30;99.90
18083;DHT22;9168;51.194;6.840;2022-11-25T15:27:20;11.20;99.90
18083;DHT22;9168;51.194;6.840;2022-11-25T15:29:50;11.10;99.90
18083;DHT22;9168;51.194;6.840;2022-11-25T15:32:23;11.10;99.90
18083;DHT22;9168;51.194;6.840;2022-11-25T15:34:51;11.00;99.90
18083;DHT22;9168;51.194;6.840;2022-11-25T15:37:19;10.90;99.90
18083;DHT22;9168;51.194;6.840;2022-11-25T15:39:47;10.90;99.90
18083;DHT22;9168;51.194;6.840;2022-11-25T15:42:16;10.70;99.90
18083;DHT22;9168;51.194;6.840;2022-11-25T15:44:47;10.60;99.90
18083;DHT22;9168;51.194;6.840;2022-11-25T15:47:20;10.60;99.90
18083;DHT22;9168;51.194;6.840;2022-11-25T15:49:58;10.50;99.90
18083;DHT22;9168;51.194;6.840;2022-11-25T15:52:27;10.50;99.90
18083;DHT22;9168;51.194;6.840;2022-11-25T15:55:00;10.40;99.90
18083;DHT22;9168;51.194;6.840;2022-11-25T15:57:29;10.40;99.90
18083;DHT22;9168;51.194;6.840;2022-11-25T16:00:14;10.40;99.90
18083;DHT22;9168;51.194;6.840;2022-11-25T16:02:51;10.30;99.90
18083;DHT22;9168;51.194;6.840;2022-11-25T16:05:50;10.30;99.90
18083;DHT22;9168;51.194;6.840;2022-11-25T16:08:28;10.30;99.90
18083;DHT22;9168;51.194;6.840;2022-11-25T16:10:57;10.30;99.90
18083;DHT22;9168;51.194;6.840;2022-11-25T16:13:35;10.40;99.90
18083;DHT22;9168;51.194;6.840;2022-11-25T16:16:18;10.40;99.90
18083;DHT22;9168;51.194;6.840;2022-11-25T16:19:12;10.40;99.90
18083;DHT22;9168;51.194;6.840;2022-11-25T16:21:47;10.50;99.90
18083;DHT22;9168;51.194;6.840;2022-11-25T16:24:40;10.50;99.90
18083;DHT22;9168;51.194;6.840;2022-11-25T16:27:21;10.50;99.90
18083;DHT22;9168;51.194;6.840;2022-11-25T16:29:51;10.60;99.90
18083;DHT22;9168;51.194;6.840;2022-11-25T16:32:19;10.50;99.90
18083;DHT22;9168;51.194;6.840;2022-11-25T16:34:47;10.50;99.90
18083;DHT22;9168;51.194;6.840;2022-11-25T16:37:14;10.50;99.90